Thunder radar more information blitzortung!


Radar de pluja more information rain snow radar


Visita la nostra xarxa de llocs de meteo:

Template documentation
and downloads

And another site



No particular awareness of the weather is required.    There are no Weather-warnings

Pagina Historial Weather Underground text

Diari Resum Juliol 23, 2017 Unitats:  Tant    Imperial   Mètric
« Previous Dia
SegĂźent Dia »
Diari Setmana Mensual Anual Personalitzada
  Maxima: Minima: Media:
Temperatura: TemperatureC °F /  -17.8 °C 17.3 °F /  -8.2 °C 23.3 °F /  -4.8 °C
Punt de rosada: DewpointC °F /  -17.8 °C 14.8 °F /  -9.6 °C 17.5 °F /  -8.1 °C
Humitat: Humidity % 50 % 71 %
Wind Speed: WindSpeedKMH mph /  0 km/h - 6.2 mph /  10 km/h
RĂ fegues de vent: WindSpeedGustKMH mph /  0 km/h - -
Vent:- - SE
Pression baro: PressurehPa in /  0 hPa 1012.8 in /  34293.4 hPa -
Precipitacions: 5.3 in /  134.62 mm    
Historical Graphs
 
 
Dades de taula per Juliol 23, 2017
Temps Temperatura Punt de rosada Pression baro Vent Wind Speed RĂ fegues de vent Humitat Rainfall Rate (Hourly)
TemperatureC °F /  -17.8 °C DewpointC °F /  -17.8 °C PressurehPa in /  0 hPa Calm     Humidity % HourlyPrecipMM in /  0 mm
00:00 22.5 °F /  -5.3 °C 18.3 °F /  -7.6 °C 1015.8 in /  34395 hPa NNE 1.6 mph /  2.6 km/h 1.6 mph /  2.6 km/h 77 % 0.0 in /  0 mm
00:02 24.2 °F /  -4.3 °C 17.9 °F /  -7.8 °C 1014.8 in /  34361.1 hPa WSW 1.9 mph /  3.1 km/h   68 % 0.0 in /  0 mm
00:10 22.5 °F /  -5.3 °C 18.3 °F /  -7.6 °C 1015.8 in /  34395 hPa Calm   3.2 mph /  5.1 km/h 77 % 0.0 in /  0 mm
00:20 22.5 °F /  -5.3 °C 18.3 °F /  -7.6 °C 1015.8 in /  34395 hPa Calm   1.6 mph /  2.6 km/h 77 % 0.0 in /  0 mm
00:30 22.5 °F /  -5.3 °C 18.4 °F /  -7.6 °C 1015.8 in /  34395 hPa NE 1.6 mph /  2.6 km/h 1.6 mph /  2.6 km/h 78 % 0.0 in /  0 mm
00:40 22.4 °F /  -5.3 °C 18.4 °F /  -7.6 °C 1015.8 in /  34395 hPa NE 1.6 mph /  2.6 km/h 4.8 mph /  7.7 km/h 78 % 0.0 in /  0 mm
00:50 22.4 °F /  -5.3 °C 18.4 °F /  -7.6 °C 1015.8 in /  34395 hPa NE 1.6 mph /  2.6 km/h 3.2 mph /  5.1 km/h 78 % 0.0 in /  0 mm
01:00 22.5 °F /  -5.3 °C 18.4 °F /  -7.6 °C 1015.8 in /  34395 hPa NE 3.2 mph /  5.1 km/h 4.8 mph /  7.7 km/h 78 % 0.0 in /  0 mm
01:10 22.5 °F /  -5.3 °C 18.4 °F /  -7.6 °C 1016.8 in /  34428.8 hPa NE 3.2 mph /  5.1 km/h 4.8 mph /  7.7 km/h 78 % 0.0 in /  0 mm
01:20 22.5 °F /  -5.3 °C 18.7 °F /  -7.4 °C 1016.8 in /  34428.8 hPa NE 1.6 mph /  2.6 km/h 3.2 mph /  5.1 km/h 79 % 0.0 in /  0 mm
01:30 22.4 °F /  -5.3 °C 18.6 °F /  -7.4 °C 1016.8 in /  34428.8 hPa NE 3.2 mph /  5.1 km/h 4.8 mph /  7.7 km/h 79 % 0.0 in /  0 mm
01:40 22.4 °F /  -5.3 °C 18.6 °F /  -7.4 °C 1016.8 in /  34428.8 hPa NNE 4.8 mph /  7.7 km/h 6.4 mph /  10.3 km/h 79 % 0.0 in /  0 mm
01:50 22.5 °F /  -5.3 °C 18.7 °F /  -7.4 °C 1016.8 in /  34428.8 hPa NNE 4.8 mph /  7.7 km/h 6.4 mph /  10.3 km/h 79 % 0.0 in /  0 mm
02:00 22.5 °F /  -5.3 °C 18.9 °F /  -7.3 °C 1016.8 in /  34428.8 hPa NE 4.8 mph /  7.7 km/h 6.4 mph /  10.3 km/h 80 % 0.0 in /  0 mm
02:10 22.6 °F /  -5.2 °C 19.0 °F /  -7.2 °C 1016.8 in /  34428.8 hPa NNE 1.6 mph /  2.6 km/h 4.8 mph /  7.7 km/h 80 % 0.0 in /  0 mm
02:20 22.6 °F /  -5.2 °C 19.0 °F /  -7.2 °C 1016.8 in /  34428.8 hPa Calm   4.8 mph /  7.7 km/h 80 % 0.0 in /  0 mm
02:30 22.7 °F /  -5.2 °C 19.1 °F /  -7.2 °C 1017.8 in /  34462.7 hPa Calm   1.6 mph /  2.6 km/h 80 % 0.0 in /  0 mm
02:40 22.8 °F /  -5.1 °C 19.2 °F /  -7.1 °C 1017.8 in /  34462.7 hPa NE 3.2 mph /  5.1 km/h 3.2 mph /  5.1 km/h 80 % 0.0 in /  0 mm
02:50 23.0 °F /  -5 °C 19.2 °F /  -7.1 °C 1017.8 in /  34462.7 hPa NE 1.6 mph /  2.6 km/h 4.8 mph /  7.7 km/h 79 % 0.0 in /  0 mm
03:00 23.2 °F /  -4.9 °C 19.2 °F /  -7.1 °C 1017.8 in /  34462.7 hPa NE 3.2 mph /  5.1 km/h 3.2 mph /  5.1 km/h 78 % 0.0 in /  0 mm
03:10 23.7 °F /  -4.6 °C 19.6 °F /  -6.9 °C 1017.8 in /  34462.7 hPa NE 1.6 mph /  2.6 km/h 3.2 mph /  5.1 km/h 78 % 0.0 in /  0 mm
03:20 23.9 °F /  -4.5 °C 19.6 °F /  -6.9 °C 1017.8 in /  34462.7 hPa NE 3.2 mph /  5.1 km/h 4.8 mph /  7.7 km/h 77 % 0.0 in /  0 mm
03:30 24.4 °F /  -4.2 °C 19.9 °F /  -6.7 °C 1017.8 in /  34462.7 hPa NE 3.2 mph /  5.1 km/h 4.8 mph /  7.7 km/h 76 % 0.0 in /  0 mm
03:40 24.8 °F /  -4 °C 20.1 °F /  -6.6 °C 1017.8 in /  34462.7 hPa NE 3.2 mph /  5.1 km/h 4.8 mph /  7.7 km/h 75 % 0.0 in /  0 mm
03:50 24.7 °F /  -4.1 °C 19.8 °F /  -6.8 °C 1017.8 in /  34462.7 hPa NE 4.8 mph /  7.7 km/h 6.4 mph /  10.3 km/h 74 % 0.0 in /  0 mm
04:00 25.1 °F /  -3.8 °C 19.7 °F /  -6.8 °C 1017.8 in /  34462.7 hPa NE 3.2 mph /  5.1 km/h 4.8 mph /  7.7 km/h 72 % 0.0 in /  0 mm
04:10 25.4 °F /  -3.7 °C 19.6 °F /  -6.9 °C 1017.8 in /  34462.7 hPa East 3.2 mph /  5.1 km/h 4.8 mph /  7.7 km/h 70 % 0.0 in /  0 mm
04:20 25.2 °F /  -3.8 °C 19.3 °F /  -7.1 °C 1017.8 in /  34462.7 hPa ESE 3.2 mph /  5.1 km/h 6.4 mph /  10.3 km/h 70 % 0.0 in /  0 mm
04:30 25.2 °F /  -3.8 °C 19.3 °F /  -7.1 °C 1017.8 in /  34462.7 hPa SE 1.6 mph /  2.6 km/h 3.2 mph /  5.1 km/h 70 % 0.0 in /  0 mm
04:40 25.3 °F /  -3.7 °C 19.4 °F /  -7 °C 1017.8 in /  34462.7 hPa South 3.2 mph /  5.1 km/h 3.2 mph /  5.1 km/h 70 % 0.0 in /  0 mm
04:50 25.7 °F /  -3.5 °C 19.8 °F /  -6.8 °C 1017.8 in /  34462.7 hPa ESE 1.6 mph /  2.6 km/h 3.2 mph /  5.1 km/h 70 % 0.0 in /  0 mm
05:00 25.7 °F /  -3.5 °C 19.6 °F /  -6.9 °C 1017.8 in /  34462.7 hPa ENE 1.6 mph /  2.6 km/h 3.2 mph /  5.1 km/h 69 % 0.0 in /  0 mm
05:10 25.8 °F /  -3.4 °C 19.7 °F /  -6.8 °C 1017.8 in /  34462.7 hPa NE 3.2 mph /  5.1 km/h 3.2 mph /  5.1 km/h 69 % 0.0 in /  0 mm
05:20 25.7 °F /  -3.5 °C 19.6 °F /  -6.9 °C 1017.8 in /  34462.7 hPa East 1.6 mph /  2.6 km/h 3.2 mph /  5.1 km/h 69 % 0.0 in /  0 mm
05:30 25.9 °F /  -3.4 °C 19.6 °F /  -6.9 °C 1017.8 in /  34462.7 hPa ESE 1.6 mph /  2.6 km/h 3.2 mph /  5.1 km/h 68 % 0.0 in /  0 mm
05:40 25.7 °F /  -3.5 °C 19.1 °F /  -7.2 °C 1017.8 in /  34462.7 hPa East 1.6 mph /  2.6 km/h 6.4 mph /  10.3 km/h 67 % 0.0 in /  0 mm
05:50 25.8 °F /  -3.4 °C 18.9 °F /  -7.3 °C 1017.8 in /  34462.7 hPa NE 3.2 mph /  5.1 km/h 4.8 mph /  7.7 km/h 66 % 0.0 in /  0 mm
05:55 26.0 °F /  -3.3 °C 19.4 °F /  -7 °C 1017.8 in /  34462.7 hPa ENE 1.6 mph /  2.6 km/h 3.2 mph /  5.1 km/h 67 % 0.0 in /  0 mm
10:56 26.0 °F /  -3.3 °C 18.9 °F /  -7.3 °C 1017.8 in /  34462.7 hPa ESE 5.6 mph /  9 km/h 5.6 mph /  9 km/h 65 % 0.0 in /  0 mm
11:01 26.0 °F /  -3.3 °C 18.9 °F /  -7.3 °C 1017.8 in /  34462.7 hPa ESE 11.1 mph /  17.9 km/h 11.1 mph /  17.9 km/h 65 % 0.0 in /  0 mm
11:06 26.0 °F /  -3.3 °C 18.7 °F /  -7.4 °C 1017.8 in /  34462.7 hPa ESE 5.8 mph /  9.3 km/h 5.8 mph /  9.3 km/h 64 % 0.0 in /  0 mm
11:11 26.0 °F /  -3.3 °C 19.2 °F /  -7.1 °C 1017.8 in /  34462.7 hPa SSW 11.1 mph /  17.9 km/h 11.1 mph /  17.9 km/h 66 % 0.0 in /  0 mm
11:16 26.2 °F /  -3.2 °C 19.3 °F /  -7.1 °C 1017.8 in /  34462.7 hPa South 5.6 mph /  9 km/h 5.6 mph /  9 km/h 66 % 0.0 in /  0 mm
11:21 26.4 °F /  -3.1 °C 19.6 °F /  -6.9 °C 1017.8 in /  34462.7 hPa SSW 5.6 mph /  9 km/h 5.6 mph /  9 km/h 66 % 0.0 in /  0 mm
11:26 26.4 °F /  -3.1 °C 19.6 °F /  -6.9 °C 1017.8 in /  34462.7 hPa WSW 5.6 mph /  9 km/h 5.6 mph /  9 km/h 66 % 0.0 in /  0 mm
11:31 26.6 °F /  -3 °C 19.5 °F /  -6.9 °C 1017.8 in /  34462.7 hPa SW 5.8 mph /  9.3 km/h 5.8 mph /  9.3 km/h 65 % 0.0 in /  0 mm
11:36 26.8 °F /  -2.9 °C 19.7 °F /  -6.8 °C 1017.8 in /  34462.7 hPa SW 1.9 mph /  3.1 km/h 2.3 mph /  3.7 km/h 65 % 0.0 in /  0 mm
11:41 27.0 °F /  -2.8 °C 19.6 °F /  -6.9 °C 1017.8 in /  34462.7 hPa SW 3.7 mph /  6 km/h   64 % 0.0 in /  0 mm
11:42 27.0 °F /  -2.8 °C 19.6 °F /  -6.9 °C 1017.8 in /  34462.7 hPa SW 1.9 mph /  3.1 km/h   64 % 0.0 in /  0 mm
11:46 27.0 °F /  -2.8 °C 19.3 °F /  -7.1 °C 1017.8 in /  34462.7 hPa ESE 5.6 mph /  9 km/h 5.6 mph /  9 km/h 63 % 0.0 in /  0 mm
11:51 27.0 °F /  -2.8 °C 19.1 °F /  -7.2 °C 1017.8 in /  34462.7 hPa SE 7.4 mph /  11.9 km/h 7.4 mph /  11.9 km/h 62 % 0.0 in /  0 mm
11:56 26.8 °F /  -2.9 °C 18.9 °F /  -7.3 °C 1017.8 in /  34462.7 hPa South 5.6 mph /  9 km/h 5.6 mph /  9 km/h 62 % 0.0 in /  0 mm
12:02 26.8 °F /  -2.9 °C 18.7 °F /  -7.4 °C 1017.8 in /  34462.7 hPa South 9.3 mph /  15 km/h 9.3 mph /  15 km/h 61 % 0.0 in /  0 mm
12:07 27.2 °F /  -2.7 °C 18.8 °F /  -7.3 °C 1017.8 in /  34462.7 hPa ESE 3.7 mph /  6 km/h 3.7 mph /  6 km/h 60 % 0.0 in /  0 mm
12:12 27.2 °F /  -2.7 °C 18.8 °F /  -7.3 °C 1017.8 in /  34462.7 hPa South 5.6 mph /  9 km/h 5.6 mph /  9 km/h 60 % 0.0 in /  0 mm
12:17 27.4 °F /  -2.6 °C 18.9 °F /  -7.3 °C 1017.8 in /  34462.7 hPa Calm   2.3 mph /  3.7 km/h 60 % 0.0 in /  0 mm
12:22 27.2 °F /  -2.7 °C 18.5 °F /  -7.5 °C 1017.8 in /  34462.7 hPa SSE 9.3 mph /  15 km/h 9.3 mph /  15 km/h 59 % 0.0 in /  0 mm
12:27 27.2 °F /  -2.7 °C 18.5 °F /  -7.5 °C 1017.8 in /  34462.7 hPa ESE 8.7 mph /  14 km/h 8.7 mph /  14 km/h 59 % 0.0 in /  0 mm
12:32 27.4 °F /  -2.6 °C 18.7 °F /  -7.4 °C 1017.8 in /  34462.7 hPa South 7.4 mph /  11.9 km/h 7.4 mph /  11.9 km/h 59 % 0.0 in /  0 mm
12:37 27.4 °F /  -2.6 °C 18.7 °F /  -7.4 °C 1017.8 in /  34462.7 hPa SSE 5.6 mph /  9 km/h 5.6 mph /  9 km/h 59 % 0.0 in /  0 mm
12:42 27.9 °F /  -2.3 °C 19.2 °F /  -7.1 °C 1017.8 in /  34462.7 hPa SSE 3.7 mph /  6 km/h 3.9 mph /  6.3 km/h 59 % 0.0 in /  0 mm
12:47 27.9 °F /  -2.3 °C 19.2 °F /  -7.1 °C 1017.8 in /  34462.7 hPa ENE 9.3 mph /  15 km/h 9.3 mph /  15 km/h 59 % 0.0 in /  0 mm
12:52 27.6 °F /  -2.4 °C 18.9 °F /  -7.3 °C 1017.8 in /  34462.7 hPa East 7.4 mph /  11.9 km/h 7.4 mph /  11.9 km/h 59 % 0.0 in /  0 mm
12:57 27.9 °F /  -2.3 °C 18.9 °F /  -7.3 °C 1017.8 in /  34462.7 hPa East 16.7 mph /  26.9 km/h 16.7 mph /  26.9 km/h 58 % 0.0 in /  0 mm
13:02 27.7 °F /  -2.4 °C 18.7 °F /  -7.4 °C 1017.8 in /  34462.7 hPa East 7.4 mph /  11.9 km/h 7.4 mph /  11.9 km/h 58 % 0.0 in /  0 mm
13:07 27.6 °F /  -2.4 °C 18.3 °F /  -7.6 °C 1017.8 in /  34462.7 hPa SE 9.3 mph /  15 km/h 9.3 mph /  15 km/h 57 % 0.0 in /  0 mm
13:12 27.4 °F /  -2.6 °C 18.1 °F /  -7.7 °C 1017.8 in /  34462.7 hPa ESE 7.6 mph /  12.2 km/h 9.0 mph /  14.5 km/h 57 % 0.0 in /  0 mm
13:17 27.5 °F /  -2.5 °C 18.2 °F /  -7.7 °C 1017.8 in /  34462.7 hPa East 13.0 mph /  20.9 km/h 13.0 mph /  20.9 km/h 57 % 0.0 in /  0 mm
13:22 27.6 °F /  -2.4 °C 18.1 °F /  -7.7 °C 1017.8 in /  34462.7 hPa ESE 13.0 mph /  20.9 km/h 13.0 mph /  20.9 km/h 56 % 0.0 in /  0 mm
13:27 27.2 °F /  -2.7 °C 17.4 °F /  -8.1 °C 1017.8 in /  34462.7 hPa ENE 14.8 mph /  23.8 km/h 14.8 mph /  23.8 km/h 55 % 0.0 in /  0 mm
13:32 27.3 °F /  -2.6 °C 17.8 °F /  -7.9 °C 1017.8 in /  34462.7 hPa NNE 7.4 mph /  11.9 km/h 7.9 mph /  12.7 km/h 56 % 0.0 in /  0 mm
13:37 27.0 °F /  -2.8 °C 16.9 °F /  -8.4 °C 1016.8 in /  34428.8 hPa East 16.7 mph /  26.9 km/h 16.7 mph /  26.9 km/h 54 % 0.0 in /  0 mm
13:42 27.3 °F /  -2.6 °C 17.2 °F /  -8.2 °C 1016.8 in /  34428.8 hPa South 9.3 mph /  15 km/h 9.3 mph /  15 km/h 54 % 0.0 in /  0 mm
13:47 27.2 °F /  -2.7 °C 17.1 °F /  -8.3 °C 1016.8 in /  34428.8 hPa SE 13.0 mph /  20.9 km/h 13.0 mph /  20.9 km/h 54 % 0.0 in /  0 mm
13:52 27.0 °F /  -2.8 °C 16.9 °F /  -8.4 °C 1016.8 in /  34428.8 hPa ESE 14.8 mph /  23.8 km/h 14.8 mph /  23.8 km/h 54 % 0.0 in /  0 mm
13:57 27.0 °F /  -2.8 °C 16.9 °F /  -8.4 °C 1016.8 in /  34428.8 hPa ESE 9.3 mph /  15 km/h 9.3 mph /  15 km/h 54 % 0.0 in /  0 mm
14:02 27.1 °F /  -2.7 °C 17.0 °F /  -8.3 °C 1016.8 in /  34428.8 hPa ESE 13.0 mph /  20.9 km/h 13.0 mph /  20.9 km/h 54 % 0.0 in /  0 mm
14:07 27.0 °F /  -2.8 °C 16.6 °F /  -8.6 °C 1015.8 in /  34395 hPa ESE 11.1 mph /  17.9 km/h 11.1 mph /  17.9 km/h 53 % 0.0 in /  0 mm
14:12 27.3 °F /  -2.6 °C 17.2 °F /  -8.2 °C 1015.8 in /  34395 hPa ENE 11.1 mph /  17.9 km/h 11.1 mph /  17.9 km/h 54 % 0.0 in /  0 mm
14:17 27.3 °F /  -2.6 °C 16.9 °F /  -8.4 °C 1015.8 in /  34395 hPa ENE 12.6 mph /  20.3 km/h 12.6 mph /  20.3 km/h 53 % 0.0 in /  0 mm
14:22 27.4 °F /  -2.6 °C 17.0 °F /  -8.3 °C 1014.8 in /  34361.1 hPa East 9.3 mph /  15 km/h 9.3 mph /  15 km/h 53 % 0.0 in /  0 mm
14:27 27.4 °F /  -2.6 °C 17.0 °F /  -8.3 °C 1014.8 in /  34361.1 hPa ESE 13.0 mph /  20.9 km/h 13.0 mph /  20.9 km/h 53 % 0.0 in /  0 mm
14:32 27.7 °F /  -2.4 °C 17.3 °F /  -8.2 °C 1014.8 in /  34361.1 hPa SE 7.4 mph /  11.9 km/h 7.4 mph /  11.9 km/h 53 % 0.0 in /  0 mm
14:37 28.0 °F /  -2.2 °C 17.5 °F /  -8.1 °C 1016.8 in /  34428.8 hPa ESE 9.3 mph /  15 km/h 9.3 mph /  15 km/h 53 % 0.0 in /  0 mm
14:42 27.8 °F /  -2.3 °C 17.1 °F /  -8.3 °C 1016.8 in /  34428.8 hPa ENE 9.3 mph /  15 km/h 9.3 mph /  15 km/h 52 % 0.0 in /  0 mm
14:47 27.9 °F /  -2.3 °C 17.1 °F /  -8.3 °C 1016.8 in /  34428.8 hPa ESE 9.7 mph /  15.6 km/h 9.7 mph /  15.6 km/h 52 % 0.0 in /  0 mm
14:52 27.8 °F /  -2.3 °C 17.1 °F /  -8.3 °C 1015.8 in /  34395 hPa South 11.1 mph /  17.9 km/h 11.1 mph /  17.9 km/h 52 % 0.0 in /  0 mm
14:57 27.8 °F /  -2.3 °C 16.7 °F /  -8.5 °C 1015.8 in /  34395 hPa ESE 16.9 mph /  27.2 km/h 16.9 mph /  27.2 km/h 51 % 0.0 in /  0 mm
15:02 28.5 °F /  -1.9 °C 17.7 °F /  -7.9 °C 1015.8 in /  34395 hPa SE 9.3 mph /  15 km/h 9.3 mph /  15 km/h 52 % 0.0 in /  0 mm
15:07 28.6 °F /  -1.9 °C 17.2 °F /  -8.2 °C 1015.8 in /  34395 hPa ENE 11.1 mph /  17.9 km/h 11.1 mph /  17.9 km/h 50 % 0.0 in /  0 mm
15:12 28.4 °F /  -2 °C 17.0 °F /  -8.3 °C 1015.8 in /  34395 hPa East 14.8 mph /  23.8 km/h 14.8 mph /  23.8 km/h 50 % 0.0 in /  0 mm
15:17 28.0 °F /  -2.2 °C 16.6 °F /  -8.6 °C 1015.8 in /  34395 hPa South 14.8 mph /  23.8 km/h 14.8 mph /  23.8 km/h 50 % 0.0 in /  0 mm
15:22 28.7 °F /  -1.8 °C 17.2 °F /  -8.2 °C 1015.8 in /  34395 hPa SE 18.5 mph /  29.8 km/h 18.5 mph /  29.8 km/h 50 % 0.0 in /  0 mm
15:27 28.3 °F /  -2.1 °C 16.9 °F /  -8.4 °C 1015.8 in /  34395 hPa ESE 13.0 mph /  20.9 km/h 13.0 mph /  20.9 km/h 50 % 0.0 in /  0 mm
15:32 28.4 °F /  -2 °C 17.0 °F /  -8.3 °C 1015.8 in /  34395 hPa SE 13.0 mph /  20.9 km/h 13.0 mph /  20.9 km/h 50 % 0.0 in /  0 mm
15:37 28.1 °F /  -2.2 °C 16.7 °F /  -8.5 °C 1014.8 in /  34361.1 hPa ENE 18.5 mph /  29.8 km/h 18.5 mph /  29.8 km/h 50 % 0.0 in /  0 mm
15:42 27.9 °F /  -2.3 °C 16.5 °F /  -8.6 °C 1014.8 in /  34361.1 hPa East 16.7 mph /  26.9 km/h 16.7 mph /  26.9 km/h 50 % 0.0 in /  0 mm
15:47 27.8 °F /  -2.3 °C 16.7 °F /  -8.5 °C 1014.8 in /  34361.1 hPa NE 14.8 mph /  23.8 km/h 14.8 mph /  23.8 km/h 51 % 0.0 in /  0 mm
15:52 28.2 °F /  -2.1 °C 17.1 °F /  -8.3 °C 1014.8 in /  34361.1 hPa South 9.3 mph /  15 km/h 9.3 mph /  15 km/h 51 % 0.0 in /  0 mm
15:57 28.2 °F /  -2.1 °C 17.1 °F /  -8.3 °C 1014.8 in /  34361.1 hPa SW 7.4 mph /  11.9 km/h 7.4 mph /  11.9 km/h 51 % 0.0 in /  0 mm
16:02 28.0 °F /  -2.2 °C 16.9 °F /  -8.4 °C 1014.8 in /  34361.1 hPa ESE 9.3 mph /  15 km/h 9.3 mph /  15 km/h 51 % 0.0 in /  0 mm
16:07 28.1 °F /  -2.2 °C 17.0 °F /  -8.3 °C 1014.8 in /  34361.1 hPa SSE 11.4 mph /  18.3 km/h 11.4 mph /  18.3 km/h 51 % 0.0 in /  0 mm
16:12 28.2 °F /  -2.1 °C 17.1 °F /  -8.3 °C 1014.8 in /  34361.1 hPa ESE 7.4 mph /  11.9 km/h 7.4 mph /  11.9 km/h 51 % 0.0 in /  0 mm
16:17 28.0 °F /  -2.2 °C 16.9 °F /  -8.4 °C 1014.8 in /  34361.1 hPa ESE 5.6 mph /  9 km/h 5.6 mph /  9 km/h 51 % 0.0 in /  0 mm
16:22 28.4 °F /  -2 °C 17.3 °F /  -8.2 °C 1015.8 in /  34395 hPa ESE 5.6 mph /  9 km/h 5.6 mph /  9 km/h 51 % 0.0 in /  0 mm
16:27 28.6 °F /  -1.9 °C 17.4 °F /  -8.1 °C 1015.8 in /  34395 hPa ESE 9.3 mph /  15 km/h 9.3 mph /  15 km/h 51 % 0.0 in /  0 mm
16:32 28.1 °F /  -2.2 °C 17.0 °F /  -8.3 °C 1015.8 in /  34395 hPa ESE 16.7 mph /  26.9 km/h 16.7 mph /  26.9 km/h 51 % 0.0 in /  0 mm
16:37 27.6 °F /  -2.4 °C 16.6 °F /  -8.6 °C 1014.8 in /  34361.1 hPa ESE 14.8 mph /  23.8 km/h 14.8 mph /  23.8 km/h 51 % 0.0 in /  0 mm
16:42 27.2 °F /  -2.7 °C 16.5 °F /  -8.6 °C 1014.8 in /  34361.1 hPa ESE 9.5 mph /  15.3 km/h 11.1 mph /  17.9 km/h 52 % 0.0 in /  0 mm
16:47 27.1 °F /  -2.7 °C 16.4 °F /  -8.7 °C 1014.8 in /  34361.1 hPa SSW 18.5 mph /  29.8 km/h 18.5 mph /  29.8 km/h 52 % 0.0 in /  0 mm
16:52 27.1 °F /  -2.7 °C 16.7 °F /  -8.5 °C 1014.8 in /  34361.1 hPa SE 12.6 mph /  20.3 km/h 12.6 mph /  20.3 km/h 53 % 0.0 in /  0 mm
16:57 26.7 °F /  -2.9 °C 16.6 °F /  -8.6 °C 1014.8 in /  34361.1 hPa South 11.9 mph /  19.2 km/h 14.0 mph /  22.5 km/h 54 % 0.0 in /  0 mm
17:02 27.0 °F /  -2.8 °C 16.9 °F /  -8.4 °C 1014.8 in /  34361.1 hPa SSE 9.3 mph /  15 km/h 9.3 mph /  15 km/h 54 % 0.0 in /  0 mm
17:07 26.7 °F /  -2.9 °C 16.9 °F /  -8.4 °C 1014.8 in /  34361.1 hPa SSE 7.4 mph /  11.9 km/h 7.6 mph /  12.2 km/h 55 % 0.0 in /  0 mm
17:12 26.7 °F /  -2.9 °C 16.9 °F /  -8.4 °C 1014.8 in /  34361.1 hPa ENE 9.3 mph /  15 km/h 9.3 mph /  15 km/h 55 % 0.0 in /  0 mm
17:17 26.6 °F /  -3 °C 17.1 °F /  -8.3 °C 1014.8 in /  34361.1 hPa ESE 14.0 mph /  22.5 km/h 14.0 mph /  22.5 km/h 56 % 0.0 in /  0 mm
17:22 26.3 °F /  -3.2 °C 17.1 °F /  -8.3 °C 1014.8 in /  34361.1 hPa ESE 10.3 mph /  16.6 km/h 10.3 mph /  16.6 km/h 57 % 0.0 in /  0 mm
17:27 26.3 °F /  -3.2 °C 17.1 °F /  -8.3 °C 1014.8 in /  34361.1 hPa NE 9.3 mph /  15 km/h 9.3 mph /  15 km/h 57 % 0.0 in /  0 mm
17:32 26.6 °F /  -3 °C 17.4 °F /  -8.1 °C 1014.8 in /  34361.1 hPa SE 6.1 mph /  9.8 km/h 6.4 mph /  10.3 km/h 57 % 0.0 in /  0 mm
17:37 27.3 °F /  -2.6 °C 17.8 °F /  -7.9 °C 1014.8 in /  34361.1 hPa SE 5.6 mph /  9 km/h 5.6 mph /  9 km/h 56 % 0.0 in /  0 mm
17:42 27.4 °F /  -2.6 °C 17.6 °F /  -8 °C 1014.8 in /  34361.1 hPa WSW 13.0 mph /  20.9 km/h 13.0 mph /  20.9 km/h 55 % 0.0 in /  0 mm
17:47 27.2 °F /  -2.7 °C 17.1 °F /  -8.3 °C 1014.8 in /  34361.1 hPa SW 13.0 mph /  20.9 km/h 13.0 mph /  20.9 km/h 54 % 0.0 in /  0 mm
17:52 27.4 °F /  -2.6 °C 17.3 °F /  -8.2 °C 1014.8 in /  34361.1 hPa SSE 13.0 mph /  20.9 km/h 13.0 mph /  20.9 km/h 54 % 0.0 in /  0 mm
17:57 27.2 °F /  -2.7 °C 17.1 °F /  -8.3 °C 1014.8 in /  34361.1 hPa West 9.3 mph /  15 km/h 9.3 mph /  15 km/h 54 % 0.0 in /  0 mm
18:02 27.1 °F /  -2.7 °C 17.0 °F /  -8.3 °C 1014.8 in /  34361.1 hPa WSW 9.3 mph /  15 km/h 9.3 mph /  15 km/h 54 % 0.0 in /  0 mm
18:07 27.1 °F /  -2.7 °C 17.3 °F /  -8.2 °C 1014.8 in /  34361.1 hPa SSW 7.9 mph /  12.7 km/h 7.9 mph /  12.7 km/h 55 % 0.0 in /  0 mm
18:12 26.9 °F /  -2.8 °C 17.4 °F /  -8.1 °C 1014.8 in /  34361.1 hPa SSW 9.3 mph /  15 km/h 9.3 mph /  15 km/h 56 % 0.0 in /  0 mm
18:17 26.7 °F /  -2.9 °C 17.2 °F /  -8.2 °C 1014.8 in /  34361.1 hPa South 14.8 mph /  23.8 km/h 14.8 mph /  23.8 km/h 56 % 0.0 in /  0 mm
18:22 26.5 °F /  -3.1 °C 17.0 °F /  -8.3 °C 1014.8 in /  34361.1 hPa South 11.1 mph /  17.9 km/h 11.1 mph /  17.9 km/h 56 % 0.0 in /  0 mm
18:27 26.4 °F /  -3.1 °C 16.9 °F /  -8.4 °C 1014.8 in /  34361.1 hPa SW 13.0 mph /  20.9 km/h 13.0 mph /  20.9 km/h 56 % 0.0 in /  0 mm
18:32 26.2 °F /  -3.2 °C 16.7 °F /  -8.5 °C 1014.8 in /  34361.1 hPa SW 13.0 mph /  20.9 km/h 13.0 mph /  20.9 km/h 56 % 0.0 in /  0 mm
18:37 25.9 °F /  -3.4 °C 16.4 °F /  -8.7 °C 1015.8 in /  34395 hPa SW 16.1 mph /  25.9 km/h 16.1 mph /  25.9 km/h 56 % 0.0 in /  0 mm
18:42 25.8 °F /  -3.4 °C 16.6 °F /  -8.6 °C 1015.8 in /  34395 hPa SSE 13.0 mph /  20.9 km/h 13.0 mph /  20.9 km/h 57 % 0.0 in /  0 mm
18:47 25.5 °F /  -3.6 °C 16.6 °F /  -8.6 °C 1015.8 in /  34395 hPa WSW 12.6 mph /  20.3 km/h 12.6 mph /  20.3 km/h 58 % 0.0 in /  0 mm
18:52 23.5 °F /  -4.7 °C 16.8 °F /  -8.4 °C 1015.8 in /  34395 hPa SSW 37.0 mph /  59.5 km/h 37.0 mph /  59.5 km/h 66 % 0.0 in /  0 mm
18:57 21.2 °F /  -6 °C 15.5 °F /  -9.2 °C 1015.8 in /  34395 hPa SSW 14.8 mph /  23.8 km/h 14.8 mph /  23.8 km/h 70 % 0.0 in /  0 mm
19:02 20.4 °F /  -6.4 °C 15.6 °F /  -9.1 °C 1015.8 in /  34395 hPa SW 28.2 mph /  45.4 km/h 28.2 mph /  45.4 km/h 74 % 1.3 in /  33.02 mm
19:07 19.4 °F /  -7 °C 15.1 °F /  -9.4 °C 1014.8 in /  34361.1 hPa West 14.8 mph /  23.8 km/h 14.8 mph /  23.8 km/h 76 % 1.3 in /  33.02 mm
19:12 19.1 °F /  -7.2 °C 14.8 °F /  -9.6 °C 1014.8 in /  34361.1 hPa SW 11.1 mph /  17.9 km/h 11.1 mph /  17.9 km/h 76 % 1.3 in /  33.02 mm
19:17 19.2 °F /  -7.1 °C 15.1 °F /  -9.4 °C 1014.8 in /  34361.1 hPa West 3.7 mph /  6 km/h 3.7 mph /  6 km/h 77 % 3.3 in /  83.82 mm
19:22 19.3 °F /  -7.1 °C 15.6 °F /  -9.1 °C 1015.8 in /  34395 hPa NNE 3.7 mph /  6 km/h 3.7 mph /  6 km/h 79 % 3.3 in /  83.82 mm
19:27 19.3 °F /  -7.1 °C 15.8 °F /  -9 °C 1015.8 in /  34395 hPa NE 5.6 mph /  9 km/h 5.6 mph /  9 km/h 80 % 3.3 in /  83.82 mm
19:32 19.5 °F /  -6.9 °C 16.2 °F /  -8.8 °C 1015.8 in /  34395 hPa WNW 2.3 mph /  3.7 km/h   81 % 4.3 in /  109.22 mm
19:37 19.4 °F /  -7 °C 15.8 °F /  -9 °C 1013.8 in /  34327.3 hPa WNW 2.3 mph /  3.7 km/h 2.3 mph /  3.7 km/h 80 % 4.3 in /  109.22 mm
19:42 19.4 °F /  -7 °C 16.2 °F /  -8.8 °C 1013.8 in /  34327.3 hPa NE 3.7 mph /  6 km/h 3.7 mph /  6 km/h 82 % 5.3 in /  134.62 mm
19:47 19.4 °F /  -7 °C 16.4 °F /  -8.7 °C 1013.8 in /  34327.3 hPa NNE 7.9 mph /  12.7 km/h 7.9 mph /  12.7 km/h 83 % 5.3 in /  134.62 mm
19:52 19.3 °F /  -7.1 °C 16.3 °F /  -8.7 °C 1013.8 in /  34327.3 hPa ENE 9.3 mph /  15 km/h 9.3 mph /  15 km/h 83 % 5.3 in /  134.62 mm
19:57 19.3 °F /  -7.1 °C 16.5 °F /  -8.6 °C 1013.8 in /  34327.3 hPa NE 9.3 mph /  15 km/h 9.3 mph /  15 km/h 84 % 5.3 in /  134.62 mm
20:02 19.1 °F /  -7.2 °C 16.3 °F /  -8.7 °C 1013.8 in /  34327.3 hPa NNE 13.0 mph /  20.9 km/h 13.0 mph /  20.9 km/h 84 % 4.1 in /  104.14 mm
20:07 19.4 °F /  -7 °C 16.8 °F /  -8.4 °C 1013.8 in /  34327.3 hPa ENE 7.4 mph /  11.9 km/h 7.4 mph /  11.9 km/h 85 % 4.1 in /  104.14 mm
20:12 19.2 °F /  -7.1 °C 16.8 °F /  -8.4 °C 1013.8 in /  34327.3 hPa WNW 7.4 mph /  11.9 km/h 7.4 mph /  11.9 km/h 86 % 4.1 in /  104.14 mm
20:15 18.7 °F /  -7.4 °C 17.4 °F /  -8.1 °C 1015.8 in /  34395 hPa Calm     92 % 0.0 in /  0 mm
20:17 19.3 °F /  -7.1 °C 17.1 °F /  -8.3 °C 1013.8 in /  34327.3 hPa North 9.3 mph /  15 km/h 9.3 mph /  15 km/h 87 % 2.0 in /  50.8 mm
20:22 19.3 °F /  -7.1 °C 16.9 °F /  -8.4 °C 1013.8 in /  34327.3 hPa SW 4.7 mph /  7.6 km/h 4.7 mph /  7.6 km/h 86 % 2.0 in /  50.8 mm
20:25 18.7 °F /  -7.4 °C 17.4 °F /  -8.1 °C 1015.8 in /  34395 hPa Calm     92 % 0.0 in /  0 mm
20:27 19.4 °F /  -7 °C 17.2 °F /  -8.2 °C 1013.8 in /  34327.3 hPa ENE 3.7 mph /  6 km/h 3.7 mph /  6 km/h 87 % 2.0 in /  50.8 mm
20:32 19.4 °F /  -7 °C 17.2 °F /  -8.2 °C 1013.8 in /  34327.3 hPa ENE 1.9 mph /  3.1 km/h   87 % 1.0 in /  25.4 mm
20:35 18.6 °F /  -7.4 °C 17.3 °F /  -8.2 °C 1015.8 in /  34395 hPa Calm     92 % 0.0 in /  0 mm
20:37 19.5 °F /  -6.9 °C 17.3 °F /  -8.2 °C 1012.8 in /  34293.4 hPa SW 4.2 mph /  6.8 km/h 4.2 mph /  6.8 km/h 87 % 1.0 in /  25.4 mm
20:42 19.4 °F /  -7 °C 17.2 °F /  -8.2 °C 1012.8 in /  34293.4 hPa SW 3.7 mph /  6 km/h   87 % 0.0 in /  0 mm
20:45 18.5 °F /  -7.5 °C 17.2 °F /  -8.2 °C 1015.8 in /  34395 hPa Calm     92 % 0.0 in /  0 mm
20:47 19.4 °F /  -7 °C 17.0 °F /  -8.3 °C 1012.8 in /  34293.4 hPa WSW 3.7 mph /  6 km/h 3.7 mph /  6 km/h 86 % 0.0 in /  0 mm
20:52 19.4 °F /  -7 °C 17.0 °F /  -8.3 °C 1013.8 in /  34327.3 hPa SW 4.7 mph /  7.6 km/h 4.7 mph /  7.6 km/h 86 % 0.0 in /  0 mm
20:55 18.4 °F /  -7.6 °C 17.1 °F /  -8.3 °C 1015.8 in /  34395 hPa Calm     92 % 0.0 in /  0 mm
20:57 19.3 °F /  -7.1 °C 17.1 °F /  -8.3 °C 1013.8 in /  34327.3 hPa SW 3.7 mph /  6 km/h 3.7 mph /  6 km/h 87 % 0.0 in /  0 mm
21:02 19.2 °F /  -7.1 °C 17.0 °F /  -8.3 °C 1013.8 in /  34327.3 hPa SW 3.7 mph /  6 km/h 3.7 mph /  6 km/h 87 % 0.0 in /  0 mm
21:05 18.4 °F /  -7.6 °C 17.1 °F /  -8.3 °C 1016.8 in /  34428.8 hPa Calm     92 % 0.0 in /  0 mm
21:07 19.1 °F /  -7.2 °C 16.9 °F /  -8.4 °C 1013.8 in /  34327.3 hPa SW 1.9 mph /  3.1 km/h 1.9 mph /  3.1 km/h 87 % 0.0 in /  0 mm
21:12 19.1 °F /  -7.2 °C 16.7 °F /  -8.5 °C 1013.8 in /  34327.3 hPa WSW 7.4 mph /  11.9 km/h 7.4 mph /  11.9 km/h 86 % 0.0 in /  0 mm
21:15 18.3 °F /  -7.6 °C 17.2 °F /  -8.2 °C 1016.8 in /  34428.8 hPa Calm     93 % 0.0 in /  0 mm
21:17 19.1 °F /  -7.2 °C 16.9 °F /  -8.4 °C 1013.8 in /  34327.3 hPa West 3.7 mph /  6 km/h 3.7 mph /  6 km/h 87 % 0.0 in /  0 mm
21:22 19.0 °F /  -7.2 °C 16.8 °F /  -8.4 °C 1013.8 in /  34327.3 hPa SW 5.8 mph /  9.3 km/h 5.8 mph /  9.3 km/h 87 % 0.0 in /  0 mm
21:25 18.3 °F /  -7.6 °C 17.2 °F /  -8.2 °C 1015.8 in /  34395 hPa Calm     93 % 0.0 in /  0 mm
21:27 19.0 °F /  -7.2 °C 16.6 °F /  -8.6 °C 1013.8 in /  34327.3 hPa SW 5.0 mph /  8 km/h 5.0 mph /  8 km/h 86 % 0.0 in /  0 mm
21:28 19.0 °F /  -7.2 °C 16.6 °F /  -8.6 °C 1013.8 in /  34327.3 hPa West 3.7 mph /  6 km/h 4.2 mph /  6.8 km/h 86 % 0.0 in /  0 mm
21:33 19.1 °F /  -7.2 °C 16.9 °F /  -8.4 °C 1013.8 in /  34327.3 hPa NNE 1.9 mph /  3.1 km/h   87 % 0.0 in /  0 mm
21:35 18.3 °F /  -7.6 °C 17.2 °F /  -8.2 °C 1015.8 in /  34395 hPa Calm     93 % 0.0 in /  0 mm
21:38 19.1 °F /  -7.2 °C 17.1 °F /  -8.3 °C 1013.8 in /  34327.3 hPa NNE 3.7 mph /  6 km/h 3.7 mph /  6 km/h 88 % 0.0 in /  0 mm
21:43 19.1 °F /  -7.2 °C 17.1 °F /  -8.3 °C 1013.8 in /  34327.3 hPa NNE 3.7 mph /  6 km/h 3.7 mph /  6 km/h 88 % 0.0 in /  0 mm
21:45 18.3 °F /  -7.6 °C 17.2 °F /  -8.2 °C 1015.8 in /  34395 hPa Calm     93 % 0.0 in /  0 mm
21:48 19.1 °F /  -7.2 °C 17.2 °F /  -8.2 °C 1013.8 in /  34327.3 hPa ENE 3.7 mph /  6 km/h 3.7 mph /  6 km/h 89 % 0.0 in /  0 mm
21:53 19.0 °F /  -7.2 °C 17.2 °F /  -8.2 °C 1014.8 in /  34361.1 hPa NE 3.7 mph /  6 km/h 3.9 mph /  6.3 km/h 89 % 0.0 in /  0 mm
21:55 18.2 °F /  -7.7 °C 17.1 °F /  -8.3 °C 1015.8 in /  34395 hPa Calm     93 % 0.0 in /  0 mm
21:58 19.1 °F /  -7.2 °C 17.2 °F /  -8.2 °C 1014.8 in /  34361.1 hPa NE 5.6 mph /  9 km/h 5.6 mph /  9 km/h 89 % 0.0 in /  0 mm
22:03 19.1 °F /  -7.2 °C 17.2 °F /  -8.2 °C 1014.8 in /  34361.1 hPa Calm     89 % 0.0 in /  0 mm
22:05 18.1 °F /  -7.7 °C 16.9 °F /  -8.4 °C 1015.8 in /  34395 hPa Calm     93 % 0.0 in /  0 mm
22:08 19.1 °F /  -7.2 °C 17.2 °F /  -8.2 °C 1015.8 in /  34395 hPa Calm     89 % 0.0 in /  0 mm
22:13 19.1 °F /  -7.2 °C 17.2 °F /  -8.2 °C 1015.8 in /  34395 hPa NE 2.6 mph /  4.2 km/h   89 % 0.0 in /  0 mm
22:15 18.0 °F /  -7.8 °C 16.8 °F /  -8.4 °C 1015.8 in /  34395 hPa Calm     93 % 0.0 in /  0 mm
22:18 19.2 °F /  -7.1 °C 17.3 °F /  -8.2 °C 1015.8 in /  34395 hPa ENE 3.7 mph /  6 km/h 3.7 mph /  6 km/h 89 % 0.0 in /  0 mm
22:23 19.2 °F /  -7.1 °C 17.3 °F /  -8.2 °C 1015.8 in /  34395 hPa NE 1.9 mph /  3.1 km/h   89 % 0.0 in /  0 mm
22:25 18.0 °F /  -7.8 °C 16.8 °F /  -8.4 °C 1014.8 in /  34361.1 hPa Calm     93 % 0.0 in /  0 mm
22:28 19.2 °F /  -7.1 °C 17.3 °F /  -8.2 °C 1015.8 in /  34395 hPa ENE 3.7 mph /  6 km/h 3.7 mph /  6 km/h 89 % 0.0 in /  0 mm
22:33 19.2 °F /  -7.1 °C 17.5 °F /  -8.1 °C 1015.8 in /  34395 hPa NE 3.7 mph /  6 km/h 3.7 mph /  6 km/h 90 % 0.0 in /  0 mm
22:35 18.0 °F /  -7.8 °C 16.8 °F /  -8.4 °C 1014.8 in /  34361.1 hPa Calm     93 % 0.0 in /  0 mm
22:38 19.1 °F /  -7.2 °C 17.4 °F /  -8.1 °C 1015.8 in /  34395 hPa Calm     90 % 0.0 in /  0 mm
22:43 19.1 °F /  -7.2 °C 17.2 °F /  -8.2 °C 1015.8 in /  34395 hPa SW 3.7 mph /  6 km/h 3.7 mph /  6 km/h 89 % 0.0 in /  0 mm
22:45 18.0 °F /  -7.8 °C 16.8 °F /  -8.4 °C 1014.8 in /  34361.1 hPa Calm     93 % 0.0 in /  0 mm
22:48 19.0 °F /  -7.2 °C 17.2 °F /  -8.2 °C 1015.8 in /  34395 hPa SW 3.7 mph /  6 km/h 3.7 mph /  6 km/h 89 % 0.0 in /  0 mm
22:53 19.0 °F /  -7.2 °C 17.2 °F /  -8.2 °C 1015.8 in /  34395 hPa WSW 3.7 mph /  6 km/h 3.7 mph /  6 km/h 89 % 0.0 in /  0 mm
22:55 18.0 °F /  -7.8 °C 16.8 °F /  -8.4 °C 1014.8 in /  34361.1 hPa Calm     93 % 0.0 in /  0 mm
22:58 19.0 °F /  -7.2 °C 17.2 °F /  -8.2 °C 1015.8 in /  34395 hPa Calm     89 % 0.0 in /  0 mm
23:03 19.0 °F /  -7.2 °C 17.3 °F /  -8.2 °C 1015.8 in /  34395 hPa Calm     90 % 0.0 in /  0 mm
23:05 17.8 °F /  -7.9 °C 16.8 °F /  -8.4 °C 1013.8 in /  34327.3 hPa Calm     94 % 0.0 in /  0 mm
23:08 19.0 °F /  -7.2 °C 17.3 °F /  -8.2 °C 1015.8 in /  34395 hPa WSW 2.6 mph /  4.2 km/h 2.6 mph /  4.2 km/h 90 % 0.0 in /  0 mm
23:13 19.0 °F /  -7.2 °C 17.2 °F /  -8.2 °C 1015.8 in /  34395 hPa SW 3.7 mph /  6 km/h 3.7 mph /  6 km/h 89 % 0.0 in /  0 mm
23:15 17.6 °F /  -8 °C 16.4 °F /  -8.7 °C 1013.8 in /  34327.3 hPa Calm     93 % 0.0 in /  0 mm
23:18 18.9 °F /  -7.3 °C 17.2 °F /  -8.2 °C 1015.8 in /  34395 hPa West 3.5 mph /  5.6 km/h   90 % 0.0 in /  0 mm
23:23 19.0 °F /  -7.2 °C 17.2 °F /  -8.2 °C 1015.8 in /  34395 hPa SW 3.7 mph /  6 km/h 3.7 mph /  6 km/h 89 % 0.0 in /  0 mm
23:25 17.5 °F /  -8.1 °C 16.3 °F /  -8.7 °C 1014.8 in /  34361.1 hPa Calm     93 % 0.0 in /  0 mm
23:28 19.0 °F /  -7.2 °C 17.3 °F /  -8.2 °C 1015.8 in /  34395 hPa Calm     90 % 0.0 in /  0 mm
23:33 18.9 °F /  -7.3 °C 17.4 °F /  -8.1 °C 1015.8 in /  34395 hPa Calm     91 % 0.0 in /  0 mm
23:35 17.4 °F /  -8.1 °C 16.3 °F /  -8.7 °C 1013.8 in /  34327.3 hPa SW 1.6 mph /  2.6 km/h 3.2 mph /  5.1 km/h 93 % 0.0 in /  0 mm
23:38 19.0 °F /  -7.2 °C 17.3 °F /  -8.2 °C 1015.8 in /  34395 hPa Calm     90 % 0.0 in /  0 mm
23:43 19.0 °F /  -7.2 °C 17.3 °F /  -8.2 °C 1015.8 in /  34395 hPa Calm     90 % 0.0 in /  0 mm
23:45 17.3 °F /  -8.2 °C 16.2 °F /  -8.8 °C 1013.8 in /  34327.3 hPa SW 1.6 mph /  2.6 km/h 3.2 mph /  5.1 km/h 93 % 0.0 in /  0 mm
23:48 19.0 °F /  -7.2 °C 17.3 °F /  -8.2 °C 1015.8 in /  34395 hPa Calm     90 % 0.0 in /  0 mm
23:53 18.9 °F /  -7.3 °C 17.4 °F /  -8.1 °C 1015.8 in /  34395 hPa Calm     91 % 0.0 in /  0 mm
23:55 17.3 °F /  -8.2 °C 16.3 °F /  -8.7 °C 1014.8 in /  34361.1 hPa Calm   1.6 mph /  2.6 km/h 94 % 0.0 in /  0 mm
23:58 19.0 °F /  -7.2 °C 17.3 °F /  -8.2 °C 1015.8 in /  34395 hPa Calm     90 % 0.0 in /  0 mm
Meteo Sesrovires
Elogis d' Weather Underground - 1.5 mb

Guio original per  Jim McMurry - jmcmurry@mwt.net Adaptat per a la plantilla per  Wim van der Kuil - Leuven-Template.eu

Trobareu la nostra informacio del temps tambe a:

Weather Underground

AWEKAS